メインページ
METAR-TAF:

METAR-TAF

空港 :

ブカレスト, ルーマニア

アンリ・コアンダ国際空港

緯度: 44-33N, 経度: 026-06E, 海抜: 95m

現時点の気象観測

当レポートは31分前の23:30(UTC)に作成
東/北東の風 16kt
気温 -4°C
湿度 74%
気圧 1016 hPa
視程10km以上
高度4300ftの曇り

METAR: LROP 242330Z 07016KT 9999 OVC043 M04/M08 Q1016 R08R/420195 R08L/420195 NOSIG

時間: 02:01 (00:01 UTC)

予報

当レポートは1時間1分前の23:00(UTC)に作成
予報は25日の 00時(UTC)から 25日の 24時(UTC)まで有効
東/北東の風 12kt
視程10km以上
高度4500ftの千切れ雲あり
25日の 15時(UTC)から 25日の 24時(UTC)まで一時的に
視程: 5000m
高度1500ftの千切れ雲あり
高度2500ftの曇り
小雪, 靄
確率 30% :
25日の 19時(UTC)から 25日の 24時(UTC)まで一時的に
東/北東の風 15kt、最大25ktの突風を伴う
視程: 1500m
高度500ftの千切れ雲あり
高度2000ftの曇り

TAF: LROP 242300Z 2500/2524 07012KT 9999 BKN045 TEMPO 2515/2524 5000 -SN BR BKN015 OVC025 PROB30 TEMPO 2519/2524 06015G25KT 1500 SN BKN005 OVC020

4,000以上の空港の気象観測と天気予報(METAR報とTAF報)

利用可能な観測所は地図上に黄色い丸と赤い丸で示す。

丸の上にカーソルを重ねると観測所名を参照できる。

次にクリックすると気象観測と天気予報を参照できる。

マップの切り替え:黒色「×」印の緑ボタンをクリックして拡大、「-」印の緑ボタンをクリックして縮小、緑色の三角印をクリックして隣りの地図に切り替え


METAR-TAF: